Time;durP1;ratioP1;P1;durP2;ratioP2;P2;SDS_P1;SDS_P2;PMS_P1;PMS_P2;Temp;Humidity;BMP_temperature;BMP_pressure;BME280_temperature;BME280_humidity;BME280_pressure;Samples;Min_cycle;Max_cycle;Signal;HPM_P1;HPM_P2
2023/03/23 00:02:03;;;;;;;4.32;2.90;;;25.00;48.30;;;;;;4982436;28;20441;-61
2023/03/23 00:04:31;;;;;;;4.63;2.90;;;24.90;48.30;;;;;;4984232;28;20130;-60
2023/03/23 00:06:57;;;;;;;4.57;3.10;;;24.90;48.30;;;;;;4985794;28;20034;-60
2023/03/23 00:09:23;;;;;;;3.88;2.70;;;24.90;48.30;;;;;;4980668;28;20031;-60
2023/03/23 00:11:50;;;;;;;4.22;3.00;;;24.90;48.30;;;;;;4985444;28;20506;-60
2023/03/23 00:14:22;;;;;;;4.35;2.83;;;24.90;48.30;;;;;;4981605;28;20101;-60
2023/03/23 00:16:48;;;;;;;4.63;3.20;;;24.90;48.40;;;;;;4982716;28;20390;-61
2023/03/23 00:19:15;;;;;;;4.32;2.67;;;24.80;48.30;;;;;;4985821;28;20037;-60
2023/03/23 00:21:42;;;;;;;4.85;2.83;;;24.80;48.30;;;;;;4982404;28;20447;-61
2023/03/23 00:24:16;;;;;;;4.30;2.78;;;24.80;48.30;;;;;;4985474;28;20031;-61
2023/03/23 00:26:47;;;;;;;4.35;2.75;;;24.80;48.30;;;;;;4979201;28;20039;-61
2023/03/23 00:29:16;;;;;;;3.85;2.72;;;24.80;48.40;;;;;;4979614;28;20022;-61
2023/03/23 00:31:46;;;;;;;4.45;2.90;;;24.80;48.40;;;;;;4983033;28;20069;-61
2023/03/23 00:34:18;;;;;;;4.97;2.97;;;24.80;48.40;;;;;;4984618;28;20031;-61
2023/03/23 00:36:49;;;;;;;3.35;2.50;;;24.80;48.40;;;;;;4978297;28;20050;-61
2023/03/23 00:39:16;;;;;;;3.50;2.50;;;24.80;48.40;;;;;;4981974;28;20030;-61
2023/03/23 00:41:42;;;;;;;3.53;2.35;;;24.80;48.50;;;;;;4981432;28;20035;-61
2023/03/23 00:44:08;;;;;;;3.63;2.70;;;24.70;48.40;;;;;;4979870;28;20041;-61
2023/03/23 00:46:44;;;;;;;3.50;2.40;;;24.70;48.40;;;;;;4981611;28;20034;-60
2023/03/23 00:49:12;;;;;;;4.20;2.72;;;24.70;48.50;;;;;;4981872;28;20133;-60
2023/03/23 00:51:38;;;;;;;3.95;2.70;;;24.70;48.50;;;;;;4983172;28;20098;-60
2023/03/23 00:54:04;;;;;;;3.92;2.72;;;24.70;48.50;;;;;;4982724;28;20492;-60
2023/03/23 00:56:29;;;;;;;3.60;2.60;;;24.70;48.50;;;;;;4985344;28;20026;-61
2023/03/23 00:58:55;;;;;;;3.60;2.60;;;24.60;48.50;;;;;;4991200;28;20049;-60
2023/03/23 01:01:20;;;;;;;3.75;2.60;;;24.60;48.50;;;;;;4986974;28;20057;-61
2023/03/23 01:03:46;;;;;;;3.25;2.50;;;24.60;48.50;;;;;;4987281;28;20030;-61
2023/03/23 01:06:14;;;;;;;3.30;2.50;;;24.60;48.60;;;;;;4986391;28;20474;-61
2023/03/23 01:08:44;;;;;;;3.08;2.10;;;24.60;48.50;;;;;;4986566;28;20113;-61
2023/03/23 01:11:13;;;;;;;3.83;2.70;;;24.50;48.50;;;;;;4989261;28;20065;-60
2023/03/23 01:13:40;;;;;;;3.47;2.40;;;24.50;48.50;;;;;;4987672;28;20019;-60
2023/03/23 01:16:06;;;;;;;3.40;2.67;;;24.50;48.50;;;;;;4991407;28;20140;-61
2023/03/23 01:18:32;;;;;;;3.35;2.38;;;24.50;48.50;;;;;;4986969;28;20097;-60
2023/03/23 01:20:57;;;;;;;3.58;2.47;;;24.50;48.50;;;;;;4989752;28;20031;-60
2023/03/23 01:23:23;;;;;;;3.00;2.20;;;24.50;48.60;;;;;;4990977;28;20533;-62
2023/03/23 01:25:49;;;;;;;3.63;2.58;;;24.50;48.60;;;;;;4987185;28;20121;-61
2023/03/23 01:28:15;;;;;;;3.10;2.40;;;24.50;48.60;;;;;;4990551;28;20452;-61
2023/03/23 01:30:41;;;;;;;3.80;2.55;;;24.50;48.60;;;;;;4987409;28;20093;-61
2023/03/23 01:33:06;;;;;;;3.10;2.20;;;24.50;48.60;;;;;;4989404;28;20065;-60
2023/03/23 01:35:32;;;;;;;3.30;2.28;;;24.50;48.70;;;;;;4987158;28;20074;-61
2023/03/23 01:37:57;;;;;;;3.50;2.40;;;24.40;48.60;;;;;;4986452;28;20051;-61
2023/03/23 01:40:26;;;;;;;2.85;2.08;;;24.40;48.60;;;;;;4994281;28;20541;-61
2023/03/23 01:42:51;;;;;;;3.35;2.20;;;24.40;48.60;;;;;;4987973;28;20030;-61
2023/03/23 01:45:20;;;;;;;2.80;2.10;;;24.40;48.70;;;;;;4988196;28;20077;-61
2023/03/23 01:48:08;;;;;;;3.25;2.30;;;24.40;48.70;;;;;;4989246;28;20030;-61
2023/03/23 01:50:44;;;;;;;3.10;2.30;;;24.40;48.70;;;;;;4988609;28;20039;-61
2023/03/23 01:53:11;;;;;;;2.95;2.10;;;24.30;48.70;;;;;;4988289;28;20545;-61
2023/03/23 01:55:40;;;;;;;3.28;2.30;;;24.40;48.70;;;;;;4985424;28;20032;-59
2023/03/23 01:58:07;;;;;;;3.42;2.40;;;24.30;48.60;;;;;;4984573;28;20093;-61
2023/03/23 02:00:33;;;;;;;2.75;1.92;;;24.30;48.70;;;;;;4989860;28;20027;-61
2023/03/23 02:03:00;;;;;;;3.95;2.42;;;24.30;48.70;;;;;;4987022;28;20035;-61
2023/03/23 02:05:40;;;;;;;2.92;2.10;;;24.30;48.70;;;;;;4987375;28;20038;-61
2023/03/23 02:08:08;;;;;;;3.10;2.20;;;24.30;48.70;;;;;;4989583;28;20070;-61
2023/03/23 02:10:36;;;;;;;3.03;2.08;;;24.30;48.70;;;;;;4985010;28;20479;-61
2023/03/23 02:13:04;;;;;;;3.22;2.00;;;24.30;48.70;;;;;;4982453;28;20026;-61
2023/03/23 02:15:41;;;;;;;3.00;1.97;;;24.30;48.80;;;;;;4984674;28;20400;-61
2023/03/23 02:18:21;;;;;;;3.08;2.10;;;24.30;49.30;;;;;;4983512;28;20022;-61
2023/03/23 02:21:07;;;;;;;3.15;2.00;;;24.30;48.80;;;;;;4983747;28;20053;-61
2023/03/23 02:23:55;;;;;;;2.80;2.00;;;24.30;48.80;;;;;;4986097;28;20026;-61
2023/03/23 02:26:46;;;;;;;2.70;2.00;;;24.20;48.70;;;;;;4983300;28;20553;-61
2023/03/23 02:29:27;;;;;;;2.78;1.83;;;24.20;48.80;;;;;;4982573;28;20438;-61
2023/03/23 02:32:15;;;;;;;2.67;1.83;;;24.20;48.80;;;;;;4984833;28;20383;-61
2023/03/23 02:34:56;;;;;;;3.15;1.88;;;24.20;48.80;;;;;;4985408;28;20446;-60
2023/03/23 02:37:28;;;;;;;2.30;1.80;;;24.20;48.80;;;;;;4982933;28;20031;-60
2023/03/23 02:40:12;;;;;;;3.25;2.10;;;24.20;49.30;;;;;;4987286;28;20105;-61
2023/03/23 02:42:42;;;;;;;2.60;1.90;;;24.20;48.80;;;;;;4984976;28;20140;-61
2023/03/23 02:45:10;;;;;;;3.00;2.03;;;24.20;48.80;;;;;;4999739;28;20031;-61
2023/03/23 02:47:39;;;;;;;4.25;1.98;;;24.20;48.80;;;;;;4982324;28;20053;-61
2023/03/23 02:50:09;;;;;;;3.13;2.20;;;24.10;48.80;;;;;;4984297;28;20039;-61
2023/03/23 02:52:39;;;;;;;2.60;1.75;;;24.10;48.80;;;;;;4981065;28;20572;-61
2023/03/23 02:55:06;;;;;;;2.97;1.92;;;24.10;48.80;;;;;;4984943;28;20022;-61
2023/03/23 02:57:32;;;;;;;2.47;1.90;;;24.10;49.30;;;;;;4986546;28;20031;-61
2023/03/23 02:59:57;;;;;;;2.50;1.88;;;24.10;48.80;;;;;;4984036;28;20038;-61
2023/03/23 03:02:24;;;;;;;2.80;2.00;;;24.10;48.80;;;;;;4985201;28;20046;-61
2023/03/23 03:05:20;;;;;;;2.70;2.00;;;24.10;48.90;;;;;;4987189;28;20030;-61
2023/03/23 03:07:52;;;;;;;2.30;1.70;;;24.10;48.90;;;;;;4985647;28;20048;-61
2023/03/23 03:10:33;;;;;;;2.78;1.90;;;24.10;48.90;;;;;;4984612;28;20474;-61
2023/03/23 03:13:02;;;;;;;2.75;1.70;;;24.10;48.90;;;;;;4985279;28;20482;-62
2023/03/23 03:15:44;;;;;;;2.33;1.77;;;24.10;48.90;;;;;;4985089;28;20081;-61
2023/03/23 03:18:22;;;;;;;2.38;1.80;;;24.10;48.90;;;;;;4984357;28;20508;-61
2023/03/23 03:20:53;;;;;;;3.10;2.00;;;24.00;48.90;;;;;;4981543;28;20031;-61
2023/03/23 03:23:22;;;;;;;2.95;1.83;;;24.00;48.90;;;;;;4984421;28;20537;-63
2023/03/23 03:25:48;;;;;;;2.65;1.77;;;24.00;48.90;;;;;;4984294;28;20056;-61
2023/03/23 03:28:21;;;;;;;3.05;1.85;;;24.00;48.90;;;;;;4983837;28;20383;-60
2023/03/23 03:30:53;;;;;;;2.55;1.75;;;24.00;48.90;;;;;;4983161;28;20026;-61
2023/03/23 03:33:20;;;;;;;2.67;1.83;;;24.00;48.90;;;;;;4982467;28;20386;-62
2023/03/23 03:35:47;;;;;;;2.70;1.70;;;24.00;48.90;;;;;;4981317;28;20141;-61
2023/03/23 03:38:13;;;;;;;2.47;1.65;;;24.00;48.90;;;;;;4983507;28;20023;-62
2023/03/23 03:40:39;;;;;;;2.53;1.70;;;24.00;48.90;;;;;;4982424;28;20030;-61
2023/03/23 03:43:06;;;;;;;3.17;1.83;;;24.00;49.00;;;;;;4981334;28;20023;-62
2023/03/23 03:45:32;;;;;;;2.78;1.80;;;24.00;49.00;;;;;;4985197;28;20026;-62
2023/03/23 03:47:58;;;;;;;2.75;1.83;;;24.00;48.90;;;;;;4980312;28;20027;-62
2023/03/23 03:50:23;;;;;;;2.05;1.50;;;23.90;48.90;;;;;;4983142;28;20030;-62
2023/03/23 03:52:49;;;;;;;2.10;1.52;;;23.90;49.00;;;;;;4981344;28;20491;-62
2023/03/23 03:55:16;;;;;;;2.60;1.63;;;23.90;49.00;;;;;;4979745;28;20421;-62
2023/03/23 03:57:42;;;;;;;2.42;1.70;;;23.90;48.90;;;;;;4983436;28;20038;-62
2023/03/23 04:00:18;;;;;;;2.60;1.80;;;23.90;48.90;;;;;;4983774;28;20026;-61
2023/03/23 04:02:53;;;;;;;2.65;1.60;;;23.90;48.90;;;;;;4984289;28;20023;-62
2023/03/23 04:05:24;;;;;;;2.55;1.75;;;23.90;48.90;;;;;;4982914;28;20121;-62
2023/03/23 04:07:51;;;;;;;2.40;1.50;;;23.90;49.40;;;;;;4981575;28;20062;-62
2023/03/23 04:10:19;;;;;;;2.30;1.58;;;23.90;48.90;;;;;;4984687;28;20619;-61
2023/03/23 04:12:45;;;;;;;2.15;1.58;;;23.90;49.00;;;;;;4982629;28;20040;-61
2023/03/23 04:15:11;;;;;;;2.53;1.63;;;23.90;48.90;;;;;;4983960;28;20394;-62
2023/03/23 04:17:37;;;;;;;2.30;1.70;;;23.90;49.00;;;;;;4979609;28;20023;-61
2023/03/23 04:20:13;;;;;;;2.40;1.60;;;23.90;49.00;;;;;;4982416;28;20037;-61
2023/03/23 04:22:39;;;;;;;2.47;1.70;;;23.90;49.00;;;;;;4983203;28;20023;-61
2023/03/23 04:25:06;;;;;;;2.63;1.60;;;23.80;48.90;;;;;;4982736;28;20034;-61
2023/03/23 04:27:32;;;;;;;1.90;1.42;;;23.80;49.00;;;;;;4979591;28;20085;-62
2023/03/23 04:29:58;;;;;;;2.33;1.63;;;23.80;49.00;;;;;;4981976;28;20394;-61
2023/03/23 04:32:28;;;;;;;2.65;1.80;;;23.80;49.00;;;;;;4982007;28;20363;-61
2023/03/23 04:34:59;;;;;;;2.33;1.73;;;23.80;49.00;;;;;;4982706;28;20030;-61
2023/03/23 04:37:34;;;;;;;2.20;1.50;;;23.80;49.00;;;;;;4982802;28;20030;-61
2023/03/23 04:40:09;;;;;;;2.13;1.48;;;23.80;49.00;;;;;;4979164;28;20065;-61
2023/03/23 04:42:34;;;;;;;2.00;1.58;;;23.80;49.00;;;;;;4981662;28;20022;-61
2023/03/23 04:45:02;;;;;;;2.40;1.50;;;23.80;49.00;;;;;;4980865;28;20095;-62
2023/03/23 04:47:29;;;;;;;2.13;1.50;;;23.80;49.00;;;;;;4983808;28;20038;-61
2023/03/23 04:49:57;;;;;;;2.10;1.45;;;23.80;49.00;;;;;;4983456;28;20164;-62
2023/03/23 04:52:25;;;;;;;2.20;1.55;;;23.80;49.00;;;;;;4983010;28;20053;-62
2023/03/23 04:54:55;;;;;;;2.17;1.43;;;23.80;49.00;;;;;;4980336;28;20395;-62
2023/03/23 04:57:22;;;;;;;2.33;1.60;;;23.70;49.00;;;;;;4982450;28;20490;-62
2023/03/23 04:59:48;;;;;;;2.05;1.40;;;23.70;49.00;;;;;;4983802;28;20027;-62
2023/03/23 05:02:14;;;;;;;2.05;1.38;;;23.80;49.00;;;;;;4982265;28;20022;-61
2023/03/23 05:04:40;;;;;;;2.05;1.45;;;23.70;49.00;;;;;;4982271;28;20093;-62
2023/03/23 05:07:07;;;;;;;2.08;1.52;;;23.70;49.00;;;;;;4982777;28;20104;-61
2023/03/23 05:09:33;;;;;;;1.90;1.30;;;23.70;49.00;;;;;;4980795;28;20571;-61
2023/03/23 05:12:05;;;;;;;2.13;1.30;;;23.70;49.10;;;;;;4981856;28;20026;-62
2023/03/23 05:14:30;;;;;;;1.80;1.40;;;23.70;49.00;;;;;;4980871;28;20422;-62
2023/03/23 05:16:56;;;;;;;2.25;1.40;;;23.70;49.00;;;;;;4983577;28;20019;-61
2023/03/23 05:19:21;;;;;;;1.70;1.30;;;23.70;49.10;;;;;;4982753;28;20027;-61
2023/03/23 05:21:47;;;;;;;2.17;1.50;;;23.70;49.10;;;;;;4982835;28;20430;-61
2023/03/23 05:24:13;;;;;;;1.92;1.40;;;23.70;49.10;;;;;;4981566;28;20027;-61
2023/03/23 05:26:39;;;;;;;1.98;1.30;;;23.70;49.10;;;;;;4982250;28;20077;-61
2023/03/23 05:29:05;;;;;;;2.13;1.48;;;23.70;49.20;;;;;;4982169;28;20498;-61
2023/03/23 05:31:30;;;;;;;2.00;1.30;;;23.70;49.20;;;;;;4979942;28;20064;-61
2023/03/23 05:33:56;;;;;;;2.13;1.48;;;23.60;49.10;;;;;;4983527;28;20109;-62
2023/03/23 05:36:22;;;;;;;1.63;1.20;;;23.70;49.20;;;;;;4981430;28;20481;-61
2023/03/23 05:38:50;;;;;;;1.75;1.30;;;23.60;49.10;;;;;;4981427;28;20105;-61
2023/03/23 05:41:16;;;;;;;1.50;1.20;;;23.70;49.10;;;;;;4980313;28;20085;-60
2023/03/23 05:43:42;;;;;;;1.85;1.45;;;23.60;49.00;;;;;;4983280;28;20031;-60
2023/03/23 05:46:09;;;;;;;2.13;1.50;;;23.60;48.90;;;;;;4988483;28;20042;-60
2023/03/23 05:48:34;;;;;;;2.25;1.30;;;23.60;48.90;;;;;;4986141;28;20483;-55
2023/03/23 05:51:00;;;;;;;2.00;1.40;;;23.60;48.90;;;;;;4984892;28;20117;-59
2023/03/23 05:53:26;;;;;;;2.20;1.38;;;23.60;48.90;;;;;;4986816;28;20076;-59
2023/03/23 05:55:52;;;;;;;1.85;1.20;;;23.60;48.90;;;;;;4986788;28;20034;-60
2023/03/23 05:58:18;;;;;;;2.25;1.40;;;23.60;48.90;;;;;;4982082;28;20102;-59
2023/03/23 06:00:46;;;;;;;1.92;1.27;;;23.60;49.00;;;;;;4987753;28;20026;-60
2023/03/23 06:03:12;;;;;;;2.00;1.38;;;23.60;48.90;;;;;;4986266;28;20026;-60
2023/03/23 06:05:45;;;;;;;1.90;1.20;;;23.60;49.00;;;;;;4983743;28;20542;-60
2023/03/23 06:08:12;;;;;;;2.25;1.30;;;23.50;48.90;;;;;;4984361;28;20049;-60
2023/03/23 06:10:37;;;;;;;2.10;1.30;;;23.60;49.00;;;;;;4987907;28;20027;-61
2023/03/23 06:13:04;;;;;;;2.13;1.50;;;23.50;48.90;;;;;;4980994;28;20034;-60
2023/03/23 06:15:32;;;;;;;1.85;1.40;;;23.50;48.90;;;;;;4986068;28;20108;-61
2023/03/23 06:18:05;;;;;;;1.67;1.15;;;23.60;48.90;;;;;;4981968;28;20455;-60
2023/03/23 06:20:32;;;;;;;2.10;1.40;;;23.50;48.90;;;;;;4984439;28;20019;-60
2023/03/23 06:22:58;;;;;;;1.90;1.40;;;23.50;48.90;;;;;;4986818;28;20038;-60
2023/03/23 06:25:24;;;;;;;2.15;1.50;;;23.50;48.90;;;;;;4987851;28;20038;-60
2023/03/23 06:27:51;;;;;;;2.92;1.50;;;23.50;49.00;;;;;;4985997;28;20037;-60
2023/03/23 06:30:17;;;;;;;1.80;1.30;;;23.50;49.00;;;;;;4987040;28;20034;-60
2023/03/23 06:32:46;;;;;;;1.80;1.30;;;23.60;48.90;;;;;;4982982;28;20027;-60
2023/03/23 06:35:12;;;;;;;2.50;1.38;;;23.50;49.40;;;;;;4983164;28;20023;-60
2023/03/23 06:37:38;;;;;;;2.28;1.50;;;23.50;48.80;;;;;;4985237;28;20037;-60
2023/03/23 06:40:09;;;;;;;2.13;1.50;;;23.50;48.70;;;;;;4985829;28;20034;-60
2023/03/23 06:42:36;;;;;;;2.22;1.30;;;23.50;48.70;;;;;;4984672;28;20034;-54
2023/03/23 06:45:03;;;;;;;2.60;1.48;;;23.50;49.20;;;;;;4986477;28;20034;-61
2023/03/23 06:47:29;;;;;;;1.73;1.30;;;23.50;48.70;;;;;;4981760;28;20118;-60
2023/03/23 06:49:55;;;;;;;2.67;1.40;;;23.50;48.70;;;;;;4980668;28;20113;-60
2023/03/23 06:52:22;;;;;;;2.47;1.40;;;23.50;48.70;;;;;;4984337;28;20027;-60
2023/03/23 06:54:49;;;;;;;2.33;1.20;;;23.40;48.60;;;;;;4985098;28;20092;-60
2023/03/23 06:57:15;;;;;;;2.20;1.40;;;23.40;48.60;;;;;;4985279;28;20030;-60
2023/03/23 06:59:41;;;;;;;2.35;1.40;;;23.50;48.60;;;;;;4983688;28;20160;-60
2023/03/23 07:02:13;;;;;;;2.33;1.33;;;23.50;48.60;;;;;;4984518;28;20034;-60
2023/03/23 07:04:40;;;;;;;2.20;1.48;;;23.50;48.60;;;;;;4980243;28;20512;-60
2023/03/23 07:07:10;;;;;;;2.85;1.70;;;23.40;48.50;;;;;;4989248;28;20030;-59
2023/03/23 07:09:36;;;;;;;4.15;2.17;;;23.40;47.50;;;;;;4985703;28;20057;-60
2023/03/23 07:12:02;;;;;;;3.35;1.90;;;23.40;46.70;;;;;;4987389;28;20121;-60
2023/03/23 07:14:28;;;;;;;3.38;1.90;;;23.40;46.10;;;;;;4985634;28;20022;-59
2023/03/23 07:16:54;;;;;;;2.85;2.10;;;23.30;45.70;;;;;;4982967;28;20494;-60
2023/03/23 07:19:20;;;;;;;3.20;1.75;;;23.40;45.50;;;;;;4987158;28;20042;-60
2023/03/23 07:21:46;;;;;;;5.93;2.10;;;23.40;45.90;;;;;;4983477;28;20027;-59
2023/03/23 07:24:15;;;;;;;3.00;1.95;;;23.40;45.70;;;;;;4979126;28;20027;-60
2023/03/23 07:26:41;;;;;;;2.97;1.65;;;23.40;45.70;;;;;;4984366;28;20053;-60
2023/03/23 07:29:08;;;;;;;2.50;1.52;;;23.30;45.60;;;;;;4983133;28;20035;-60
2023/03/23 07:31:34;;;;;;;3.10;1.65;;;23.30;45.80;;;;;;4983634;28;20121;-60
2023/03/23 07:34:00;;;;;;;3.42;1.63;;;23.30;46.30;;;;;;4985676;28;20018;-60
2023/03/23 07:36:26;;;;;;;2.03;1.30;;;23.40;45.90;;;;;;4984376;28;20482;-60
2023/03/23 07:38:52;;;;;;;2.25;1.50;;;23.30;46.60;;;;;;4981723;28;20106;-59
2023/03/23 07:41:19;;;;;;;5.70;1.70;;;23.30;46.30;;;;;;4984611;28;20474;-59
2023/03/23 07:43:45;;;;;;;3.67;1.85;;;23.40;46.30;;;;;;4985958;28;20100;-60
2023/03/23 07:46:11;;;;;;;2.50;1.48;;;23.30;46.40;;;;;;4983562;28;20035;-60
2023/03/23 07:48:37;;;;;;;3.90;1.35;;;23.30;46.40;;;;;;4982669;28;20550;-59
2023/03/23 07:51:03;;;;;;;2.50;1.45;;;23.30;46.40;;;;;;4980944;28;20229;-60
2023/03/23 07:53:29;;;;;;;2.15;1.30;;;23.30;46.60;;;;;;4979985;28;20027;-60
2023/03/23 07:55:54;;;;;;;3.70;1.65;;;23.30;46.60;;;;;;4981305;28;20488;-59
2023/03/23 07:58:20;;;;;;;3.53;1.30;;;23.30;46.60;;;;;;4985104;28;20061;-60
2023/03/23 08:00:48;;;;;;;1.92;1.30;;;23.30;46.70;;;;;;4981461;28;20031;-60
2023/03/23 08:03:15;;;;;;;2.20;1.30;;;23.40;46.80;;;;;;4981543;28;20030;-60
2023/03/23 08:05:42;;;;;;;2.50;1.63;;;23.30;46.80;;;;;;4981550;28;20049;-58
2023/03/23 08:08:09;;;;;;;2.33;1.40;;;23.30;46.90;;;;;;4981820;28;20034;-60
2023/03/23 08:10:36;;;;;;;2.13;1.35;;;23.30;46.90;;;;;;4980903;28;20077;-60
2023/03/23 08:13:03;;;;;;;2.38;1.45;;;23.30;47.00;;;;;;4984100;28;20019;-59
2023/03/23 08:15:29;;;;;;;2.05;1.40;;;23.30;47.00;;;;;;4981781;28;20117;-59
2023/03/23 08:17:55;;;;;;;2.35;1.40;;;23.30;47.10;;;;;;4981927;28;20022;-60
2023/03/23 08:20:25;;;;;;;3.50;1.35;;;23.30;47.10;;;;;;4980840;28;20514;-60
2023/03/23 08:22:55;;;;;;;2.60;1.40;;;23.30;47.10;;;;;;4980761;28;20494;-60
2023/03/23 08:25:21;;;;;;;2.25;1.35;;;23.30;47.20;;;;;;4983562;28;20148;-60
2023/03/23 08:27:47;;;;;;;3.47;1.38;;;23.30;47.20;;;;;;4982431;28;20030;-60
2023/03/23 08:30:16;;;;;;;3.30;1.30;;;23.30;47.30;;;;;;4985331;28;20022;-61
2023/03/23 08:32:44;;;;;;;2.05;1.25;;;23.30;47.30;;;;;;4984541;28;20382;-60
2023/03/23 08:35:10;;;;;;;2.75;1.40;;;23.30;47.30;;;;;;4979088;28;20022;-60
2023/03/23 08:37:37;;;;;;;3.40;1.30;;;23.30;47.40;;;;;;4981397;28;20023;-60
2023/03/23 08:40:10;;;;;;;2.30;1.27;;;23.30;47.90;;;;;;4982111;28;20097;-59
2023/03/23 08:42:40;;;;;;;2.50;1.40;;;23.30;47.40;;;;;;4978588;28;20033;-61
2023/03/23 08:45:07;;;;;;;2.83;1.40;;;23.30;47.90;;;;;;4987714;28;20121;-60
2023/03/23 08:47:35;;;;;;;2.20;1.30;;;23.30;47.50;;;;;;4981869;28;20490;-61
2023/03/23 08:50:01;;;;;;;2.30;1.20;;;23.20;47.50;;;;;;4982379;28;20125;-60
2023/03/23 08:52:28;;;;;;;2.40;1.35;;;23.30;47.50;;;;;;4979279;28;20057;-61
2023/03/23 08:54:54;;;;;;;1.75;1.25;;;23.30;47.50;;;;;;4981872;28;20093;-58
2023/03/23 08:57:20;;;;;;;2.22;1.20;;;23.30;48.10;;;;;;4981007;28;20022;-60
2023/03/23 08:59:46;;;;;;;2.97;1.40;;;23.20;47.50;;;;;;4981633;28;20034;-60
2023/03/23 09:02:12;;;;;;;2.28;1.35;;;23.30;47.60;;;;;;4980052;28;20030;-61
2023/03/23 09:04:39;;;;;;;1.85;1.10;;;23.30;47.60;;;;;;4983087;28;20076;-60
2023/03/23 09:07:06;;;;;;;2.03;1.33;;;23.30;47.70;;;;;;4981724;28;20574;-60
2023/03/23 09:09:33;;;;;;;1.45;1.05;;;23.20;47.60;;;;;;4986636;28;20390;-60
2023/03/23 09:12:00;;;;;;;1.80;1.17;;;23.30;47.70;;;;;;4982365;28;20034;-61
2023/03/23 09:14:26;;;;;;;1.60;1.10;;;23.20;47.60;;;;;;4982142;28;20099;-61
2023/03/23 09:16:52;;;;;;;2.65;1.27;;;23.30;47.70;;;;;;4980620;28;20038;-61
2023/03/23 09:19:18;;;;;;;1.50;1.10;;;23.30;47.70;;;;;;4987745;28;20467;-61
2023/03/23 09:21:45;;;;;;;2.13;1.20;;;23.20;47.70;;;;;;4986100;28;20415;-61
2023/03/23 09:24:11;;;;;;;2.85;1.23;;;23.30;47.80;;;;;;4986665;28;20042;-61
2023/03/23 09:26:37;;;;;;;2.17;1.23;;;23.30;47.80;;;;;;4985042;28;20121;-60
2023/03/23 09:29:03;;;;;;;2.42;1.40;;;23.30;47.80;;;;;;4986708;28;20101;-61
2023/03/23 09:31:31;;;;;;;1.83;1.05;;;23.20;47.80;;;;;;4984417;28;20471;-61
2023/03/23 09:33:58;;;;;;;2.00;1.10;;;23.30;47.90;;;;;;4983541;28;20062;-61
2023/03/23 09:36:25;;;;;;;1.98;1.23;;;23.20;47.80;;;;;;4988165;28;20497;-61
2023/03/23 09:38:52;;;;;;;1.90;1.20;;;23.20;47.80;;;;;;4987729;28;20041;-61
2023/03/23 09:41:45;;;;;;;1.98;1.20;;;23.30;47.90;;;;;;4986361;28;20118;-61
2023/03/23 09:44:29;;;;;;;2.20;1.20;;;23.30;47.90;;;;;;4986676;28;20034;-60
2023/03/23 09:46:58;;;;;;;1.60;1.10;;;23.30;47.90;;;;;;4984089;28;20026;-61
2023/03/23 09:49:38;;;;;;;3.05;1.10;;;23.20;47.90;;;;;;4985775;28;20377;-61
2023/03/23 09:52:17;;;;;;;2.00;1.20;;;23.20;47.90;;;;;;4988079;28;20437;-61
2023/03/23 09:54:47;;;;;;;2.78;1.20;;;23.20;47.90;;;;;;4983885;28;20130;-61
2023/03/23 09:57:28;;;;;;;1.55;1.10;;;23.20;47.90;;;;;;4985577;28;20046;-61
2023/03/23 10:00:07;;;;;;;1.23;1.00;;;23.20;47.90;;;;;;4985744;28;20453;-61
2023/03/23 10:02:46;;;;;;;;;;;23.20;47.90;;;;;;4989100;28;20030;-60
2023/03/23 10:05:32;;;;;;;1.27;1.00;;;23.20;47.90;;;;;;4986218;28;19961;-61
2023/03/23 10:08:00;;;;;;;1.23;0.90;;;23.20;47.90;;;;;;4982997;28;20030;-61
2023/03/23 10:10:39;;;;;;;2.63;1.20;;;23.20;47.90;;;;;;4986079;28;20031;-61
2023/03/23 10:13:30;;;;;;;2.22;1.10;;;23.20;48.00;;;;;;4987060;28;20056;-61
2023/03/23 10:15:57;;;;;;;1.52;1.10;;;23.20;48.00;;;;;;4986894;28;20094;-61
2023/03/23 10:18:38;;;;;;;2.03;1.17;;;23.20;48.00;;;;;;4985856;28;20518;-61
2023/03/23 10:21:05;;;;;;;3.35;1.23;;;23.20;48.00;;;;;;4988668;28;20038;-61
2023/03/23 10:23:40;;;;;;;1.52;1.00;;;23.20;48.10;;;;;;4988979;28;20041;-61
2023/03/23 10:26:16;;;;;;;1.88;0.90;;;23.20;48.00;;;;;;4977719;28;20407;-61
2023/03/23 10:28:44;;;;;;;1.70;1.10;;;23.20;48.00;;;;;;4984632;28;20053;-61
2023/03/23 10:31:16;;;;;;;1.90;1.10;;;23.20;48.00;;;;;;4983572;28;20045;-61
2023/03/23 10:33:50;;;;;;;1.38;1.10;;;23.30;48.10;;;;;;4983794;28;20399;-61
2023/03/23 10:36:29;;;;;;;1.73;1.10;;;23.20;48.00;;;;;;4986258;28;20497;-61
2023/03/23 10:39:01;;;;;;;2.10;1.15;;;23.20;48.10;;;;;;4984113;28;20065;-60
2023/03/23 10:41:27;;;;;;;1.65;1.08;;;23.20;48.10;;;;;;4982347;28;20026;-60
2023/03/23 10:43:54;;;;;;;5.63;1.08;;;23.20;48.10;;;;;;4989887;28;20173;-60
2023/03/23 10:46:35;;;;;;;1.63;1.10;;;23.20;48.10;;;;;;4983292;28;20022;-61
2023/03/23 10:49:02;;;;;;;1.90;1.10;;;23.20;48.10;;;;;;4980240;28;20058;-61
2023/03/23 10:51:39;;;;;;;1.38;0.95;;;23.20;48.10;;;;;;4983039;28;20098;-61
2023/03/23 10:54:06;;;;;;;1.45;1.00;;;23.20;48.10;;;;;;4983300;28;20606;-61
2023/03/23 10:56:44;;;;;;;1.80;1.10;;;23.30;48.20;;;;;;4985883;28;20114;-61
2023/03/23 10:59:32;;;;;;;1.80;1.13;;;23.20;48.10;;;;;;4984731;28;20019;-61
2023/03/23 11:02:03;;;;;;;1.40;0.90;;;23.20;48.10;;;;;;4985810;28;20046;-61
2023/03/23 11:04:30;;;;;;;2.20;1.15;;;23.20;48.10;;;;;;4983142;28;20573;-61
2023/03/23 11:07:01;;;;;;;1.80;0.95;;;23.20;48.20;;;;;;4986661;28;20490;-61
2023/03/23 11:09:36;;;;;;;1.98;1.10;;;23.30;48.20;;;;;;4980832;28;20022;-61
2023/03/23 11:12:02;;;;;;;1.50;1.02;;;23.20;48.10;;;;;;4984266;28;20101;-61
2023/03/23 11:14:31;;;;;;;2.10;1.10;;;23.20;48.20;;;;;;4984500;28;20105;-60
2023/03/23 11:17:00;;;;;;;2.08;1.17;;;23.20;48.20;;;;;;4986273;28;20034;-60
2023/03/23 11:19:35;;;;;;;2.03;1.05;;;23.20;48.20;;;;;;4983205;28;20045;-61
2023/03/23 11:22:04;;;;;;;1.52;0.98;;;23.30;48.30;;;;;;4983916;28;20034;-60
2023/03/23 11:24:33;;;;;;;1.45;1.05;;;23.20;48.20;;;;;;4983698;28;20498;-60
2023/03/23 11:27:00;;;;;;;1.80;1.02;;;23.20;48.30;;;;;;4983452;28;20093;-60
2023/03/23 11:29:28;;;;;;;1.75;1.00;;;23.30;48.30;;;;;;4985510;28;20078;-60
2023/03/23 11:32:07;;;;;;;1.45;1.02;;;23.20;48.20;;;;;;4984355;28;20023;-61
2023/03/23 11:34:35;;;;;;;1.45;1.00;;;23.20;48.30;;;;;;4982929;28;20041;-61
2023/03/23 11:37:29;;;;;;;1.77;1.10;;;23.20;48.30;;;;;;4981823;28;20942;-60
2023/03/23 11:39:58;;;;;;;1.58;0.98;;;23.20;48.30;;;;;;4983240;28;20040;-61
2023/03/23 11:42:28;;;;;;;1.42;1.02;;;23.20;48.30;;;;;;4983848;28;20034;-61
2023/03/23 11:44:54;;;;;;;1.33;1.00;;;23.30;48.30;;;;;;4983986;28;20035;-61
2023/03/23 11:47:35;;;;;;;1.55;1.10;;;23.30;48.40;;;;;;4983338;28;20041;-60
2023/03/23 11:50:17;;;;;;;1.85;1.10;;;23.20;48.30;;;;;;4981870;28;20085;-61
2023/03/23 11:52:50;;;;;;;1.27;1.00;;;23.20;48.30;;;;;;4983444;28;20031;-60
2023/03/23 11:55:26;;;;;;;1.52;0.90;;;23.30;48.30;;;;;;4985741;28;20478;-61
2023/03/23 11:57:54;;;;;;;1.63;0.98;;;23.30;48.30;;;;;;4988717;28;20126;-61
2023/03/23 12:00:22;;;;;;;1.63;1.00;;;23.30;48.90;;;;;;4983465;28;20438;-60
2023/03/23 12:03:03;;;;;;;1.70;1.00;;;23.30;48.40;;;;;;4984862;28;20022;-60
2023/03/23 12:05:48;;;;;;;1.75;1.20;;;23.30;48.40;;;;;;4982697;28;20117;-61
2023/03/23 12:08:39;;;;;;;1.77;1.10;;;23.30;48.40;;;;;;4984809;28;20045;-61
2023/03/23 12:11:35;;;;;;;1.52;1.00;;;23.30;48.50;;;;;;4982383;28;20042;-61
2023/03/23 12:14:40;;;;;;;1.30;0.90;;;23.30;48.40;;;;;;4985722;28;20034;-60
2023/03/23 12:17:24;;;;;;;1.35;0.90;;;23.30;48.50;;;;;;4974276;28;20125;-61
2023/03/23 12:20:41;;;;;;;1.10;0.80;;;23.30;48.50;;;;;;4981794;28;20038;-61
2023/03/23 12:23:22;;;;;;;1.67;0.90;;;23.30;48.50;;;;;;4968322;28;20042;-61
2023/03/23 12:25:57;;;;;;;1.50;1.10;;;23.30;48.60;;;;;;4986308;28;20379;-60
2023/03/23 12:28:42;;;;;;;1.80;1.10;;;23.30;48.60;;;;;;4982594;28;20034;-61
2023/03/23 12:31:07;;;;;;;1.23;0.90;;;23.30;48.60;;;;;;4983874;28;20034;-61
2023/03/23 12:33:46;;;;;;;1.02;0.80;;;23.30;48.60;;;;;;4984809;28;20046;-60
2023/03/23 12:36:23;;;;;;;1.45;0.90;;;23.20;48.50;;;;;;4984140;28;20031;-61
2023/03/23 12:38:59;;;;;;;1.00;0.90;;;23.30;48.60;;;;;;4983603;28;20056;-61
2023/03/23 12:41:51;;;;;;;1.52;1.00;;;23.30;48.60;;;;;;4982923;28;20034;-60
2023/03/23 12:44:21;;;;;;;1.30;0.93;;;23.30;48.60;;;;;;4982200;28;20031;-61
2023/03/23 12:46:56;;;;;;;1.95;0.80;;;23.30;48.60;;;;;;4990000;28;20382;-61
2023/03/23 12:49:34;;;;;;;1.00;0.88;;;23.30;48.60;;;;;;4982238;28;20085;-61
2023/03/23 12:52:13;;;;;;;2.03;1.10;;;23.30;48.60;;;;;;4983488;28;20109;-62
2023/03/23 12:55:02;;;;;;;1.40;0.90;;;23.30;48.60;;;;;;4982828;28;20113;-61
2023/03/23 12:57:30;;;;;;;1.85;1.00;;;23.30;48.60;;;;;;4983035;28;20049;-61
2023/03/23 13:00:22;;;;;;;1.38;0.85;;;23.30;48.60;;;;;;4983652;28;20033;-61
2023/03/23 13:03:17;;;;;;;1.45;0.93;;;23.30;48.60;;;;;;4977885;28;20038;-62
2023/03/23 13:06:18;;;;;;;1.45;0.98;;;23.30;48.60;;;;;;4979570;28;20371;-61